Southern Pines, NC

10:33 AM EDT on August 30, 2014 (GMT -0400)
Bethesda farms | Change Station
CLOSE
Current Station
Personal Weather Station
Location: Aberdeen, NC
Elevation: 528 ft
Nearby Weather Stations

Elev 528 ft 35.13 °N, 79.40 °W | Updated 10 minutes ago

Overcast
Overcast
79.2 °F
Feels Like 83 °F
N
0.0
Wind Variable Wind from NE

Today
High -- | Low -- °F
--% Chance of Precip.
Yesterday
High -- | Low -- °F
Precip. -- in
6:48 AM 7:47 PM
Waxing Crescent, 22% visible
Pressure 30.23 in
Visibility 10.0 miles
Clouds Overcast 800 ft
Heat Index 83 °F
Dew Point 74 °F
Humidity 85%
Rainfall 0.00 in
Snow Depth Not available.
UV 2 out of 12
Pollen 8.60 out of 12
Air Quality Not available.
Flu Activity Not available.
METAR KSOP 301415Z AUTO 09006KT 10SM OVC008 25/21 A3023 RMK AO1

More Conditions Fewer Conditions

Pressure 30.23 in
Visibility 10.0 miles
Clouds Overcast 800 ft
Heat Index 83 °F
Dew Point 74 °F
Humidity 85%
Rainfall 0.00 in
Snow Depth Not available.
UV 2 out of 12
Pollen 8.60 out of 12
Air Quality Not available.
Flu Activity Not available.
METAR KSOP 301415Z AUTO 09006KT 10SM OVC008 25/21 A3023 RMK AO1

More Conditions Fewer Conditions

10-Day Weather Forecast

Almanac

Astronomy

Aug. 30, 2014 Rise Set
Actual Time 6:48 AM EDT 7:47 PM EDT
Civil Twilight 6:22 AM EDT 8:13 PM EDT
Nautical Twilight 5:51 AM EDT 8:43 PM EDT
Astronomical Twilight 5:19 AM EDT 9:15 PM EDT
Moon 11:22 AM EDT 10:32 PM EDT
Length of Visible Light 13h 50m
Length of Day
12h 58m
Tomorrow will be 2m 6s shorter.
Waxing Crescent, 22% of the Moon is Illuminated
Today
Waxing Crescent
Sep 2
First Quarter
Sep 8
Full
Sep 15
Last Quarter
Sep 24
New

Today's Extremes

State Highs State Lows

Community

WunderPhotos

Upload Photos

1,748,523 photos uploaded!

WunderBlogs® & News

Nearby

Snow Depth

Station Depth Elevation
No new snow has been reported.

Earthquake Activity

City Distance Mag. Time & Date
No recent earthquake activity has been reported nearby.
Minimum magnitude displayed is 2.5.

Coastal Water Temperatures

Place Temperature
No Stations Reporting

Nearby Weather Stations